Marche-en-Famenne, Belgium
Current Conditions -  °F | °C
As of 8:50 AM on Monday 24 Nov 2014 (Local Time) from EBLG Reporting Station
Haze Haze  
Wind Chill: 42°   Ceiling: Unl
Heat Index: 45°   Visibility: 3mi
Dew Point: 43°   Wind: 5mph
Humidity: 93%   Direction: 360°N
Pressure: 30.24"   Gusts: NA
Location:  50.23°N, 5.34°E
Report Text: EBLG 240750Z 36004KT 5000 BR FEW004 SCT042 07/06 Q1024 TEMPO 4500 BR
Loading
Personal Weather Stations






























Interactive Weather Map New forecast layout! Learn more

10-Day Weather Forecast

Advertisements
Track Severe Weather on mobile